Time;durP1;ratioP1;P1;durP2;ratioP2;P2;SDS_P1;SDS_P2;PMS_P1;PMS_P2;Temp;Humidity;BMP_temperature;BMP_pressure;BME280_temperature;BME280_humidity;BME280_pressure;Samples;Min_cycle;Max_cycle;Signal;HPM_P1;HPM_P2
2022/08/19 00:01:35;;;;;;;14.73;8.98;;;20.80;99.90;;;;;;5080324;28;20063;-79
2022/08/19 00:04:05;;;;;;;11.82;8.68;;;20.80;99.90;;;;;;5078495;28;20071;-79
2022/08/19 00:06:32;;;;;;;13.13;8.93;;;20.80;99.90;;;;;;5078345;28;20040;-79
2022/08/19 00:09:01;;;;;;;15.77;8.50;;;20.90;99.90;;;;;;5058543;28;20055;-79
2022/08/19 00:11:29;;;;;;;12.65;8.07;;;20.90;99.90;;;;;;5058511;28;20102;-79
2022/08/19 00:13:57;;;;;;;14.05;8.80;;;20.90;99.90;;;;;;5058747;28;20041;-78
2022/08/19 00:16:25;;;;;;;14.07;9.23;;;20.90;99.90;;;;;;5058660;28;20041;-78
2022/08/19 00:18:53;;;;;;;12.85;8.40;;;20.90;99.90;;;;;;5060304;28;20036;-79
2022/08/19 00:21:20;;;;;;;13.57;8.38;;;20.80;99.90;;;;;;5078080;28;20102;-79
2022/08/19 00:23:47;;;;;;;13.27;9.02;;;20.70;99.90;;;;;;5079690;28;20041;-79
2022/08/19 00:26:15;;;;;;;11.57;8.90;;;20.70;99.90;;;;;;5080729;28;20044;-79
2022/08/19 00:28:43;;;;;;;15.38;8.93;;;20.70;99.90;;;;;;5080955;28;20549;-78
2022/08/19 00:31:11;;;;;;;9.52;7.15;;;20.70;99.90;;;;;;5062408;28;20048;-79
2022/08/19 00:33:38;;;;;;;13.38;8.35;;;20.70;99.90;;;;;;5075892;28;20481;-79
2022/08/19 00:36:09;;;;;;;11.23;7.95;;;20.70;99.90;;;;;;5061918;28;20041;-78
2022/08/19 00:38:37;;;;;;;14.15;8.55;;;20.60;99.90;;;;;;5080414;28;20057;-79
2022/08/19 00:41:05;;;;;;;15.40;7.97;;;20.60;99.90;;;;;;5080325;28;20403;-78
2022/08/19 00:43:32;;;;;;;14.23;8.70;;;20.60;99.90;;;;;;5079503;28;20098;-79
2022/08/19 00:46:01;;;;;;;12.35;8.50;;;20.60;99.90;;;;;;5076441;28;20097;-78
2022/08/19 00:48:28;;;;;;;11.18;8.27;;;20.60;99.90;;;;;;5077226;28;20446;-78
2022/08/19 00:50:56;;;;;;;14.60;8.45;;;20.60;99.90;;;;;;5058982;28;20068;-79
2022/08/19 00:53:27;;;;;;;14.32;8.32;;;20.50;99.90;;;;;;5072263;28;20044;-79
2022/08/19 00:55:58;;;;;;;20.67;12.00;;;20.50;99.90;;;;;;5080392;28;20044;-79
2022/08/19 00:58:31;;;;;;;19.85;11.65;;;20.40;99.90;;;;;;5082372;28;20040;-78
2022/08/19 01:01:00;;;;;;;15.48;10.52;;;20.40;99.90;;;;;;5082450;28;20041;-78
2022/08/19 01:03:27;;;;;;;14.43;8.20;;;20.40;99.90;;;;;;5082329;28;20068;-78
2022/08/19 01:05:56;;;;;;;14.80;8.50;;;20.40;99.90;;;;;;5067208;28;20049;-78
2022/08/19 01:08:24;;;;;;;12.30;9.05;;;20.30;99.90;;;;;;5056967;28;20090;-78
2022/08/19 01:10:54;;;;;;;11.93;8.60;;;20.30;99.90;;;;;;5055851;28;20052;-78
2022/08/19 01:13:24;;;;;;;13.35;8.73;;;20.30;99.90;;;;;;5055133;28;20037;-78
2022/08/19 01:15:56;;;;;;;15.57;8.88;;;20.20;99.90;;;;;;5055818;28;20045;-78
2022/08/19 01:18:25;;;;;;;18.73;9.00;;;20.20;99.90;;;;;;5075231;28;20045;-78
2022/08/19 01:20:55;;;;;;;13.27;8.80;;;20.10;99.90;;;;;;5076668;28;20041;-78
2022/08/19 01:23:42;;;;;;;15.73;8.52;;;20.10;99.90;;;;;;5076071;28;20045;-78
2022/08/19 01:26:12;;;;;;;15.10;7.90;;;20.10;99.90;;;;;;5070254;28;20047;-78
2022/08/19 01:28:39;;;;;;;12.63;8.55;;;20.10;99.90;;;;;;5059548;28;20118;-80
2022/08/19 01:31:11;;;;;;;13.65;8.38;;;20.10;99.90;;;;;;5073512;28;20076;-78
2022/08/19 01:33:38;;;;;;;14.40;8.18;;;20.10;99.90;;;;;;5055797;28;20040;-78
2022/08/19 01:36:09;;;;;;;13.15;8.18;;;20.00;99.90;;;;;;5056520;28;20049;-78
2022/08/19 01:38:41;;;;;;;13.85;8.27;;;20.00;99.90;;;;;;5055809;28;20044;-78
2022/08/19 01:41:08;;;;;;;14.30;8.23;;;20.00;99.90;;;;;;5055725;28;20128;-78
2022/08/19 01:43:36;;;;;;;12.23;8.07;;;20.00;99.90;;;;;;5055025;28;20120;-78
2022/08/19 01:46:04;;;;;;;11.30;8.63;;;19.90;99.90;;;;;;5058890;28;20492;-78
2022/08/19 01:48:35;;;;;;;14.23;9.13;;;19.90;99.90;;;;;;5065351;28;20124;-79
2022/08/19 01:51:03;;;;;;;15.57;9.32;;;19.90;99.90;;;;;;5066389;28;20033;-78
2022/08/19 01:53:30;;;;;;;14.88;8.57;;;19.80;99.90;;;;;;5058598;28;20037;-77
2022/08/19 01:55:59;;;;;;;11.18;8.90;;;19.80;99.90;;;;;;5064982;28;20052;-78
2022/08/19 01:58:30;;;;;;;14.98;8.93;;;19.80;99.90;;;;;;5038886;28;20063;-79
2022/08/19 02:00:58;;;;;;;12.38;8.13;;;19.70;99.90;;;;;;5056035;28;20045;-78
2022/08/19 02:03:26;;;;;;;14.00;8.30;;;19.80;99.90;;;;;;5055307;28;20041;-78
2022/08/19 02:05:57;;;;;;;11.90;8.25;;;19.80;99.90;;;;;;5054966;28;20059;-78
2022/08/19 02:08:24;;;;;;;13.68;7.93;;;19.80;99.90;;;;;;5059195;28;20045;-79
2022/08/19 02:10:51;;;;;;;14.00;8.00;;;19.80;99.90;;;;;;5063139;28;20455;-79
2022/08/19 02:13:21;;;;;;;13.02;8.23;;;19.80;99.90;;;;;;5060188;28;20453;-79
2022/08/19 02:15:48;;;;;;;17.48;8.32;;;19.80;99.90;;;;;;5077905;28;20050;-79
2022/08/19 02:18:15;;;;;;;11.95;8.45;;;19.70;99.90;;;;;;5079556;28;20051;-79
2022/08/19 02:20:44;;;;;;;16.27;8.40;;;19.70;99.90;;;;;;5080245;28;20119;-79
2022/08/19 02:23:12;;;;;;;17.00;9.27;;;19.60;99.90;;;;;;5079940;28;20063;-79
2022/08/19 02:25:40;;;;;;;10.43;8.38;;;19.60;99.90;;;;;;5083557;28;20052;-79
2022/08/19 02:28:07;;;;;;;15.07;8.73;;;19.60;99.90;;;;;;5083555;28;20067;-79
2022/08/19 02:30:36;;;;;;;17.52;8.82;;;19.50;99.90;;;;;;5083523;28;20487;-79
2022/08/19 02:33:04;;;;;;;15.27;8.75;;;19.50;99.90;;;;;;5088008;28;20090;-77
2022/08/19 02:35:31;;;;;;;14.18;8.02;;;19.50;99.90;;;;;;5073406;28;20104;-78
2022/08/19 02:40:51;;;;;;;12.30;7.40;;;19.60;99.90;;;;;;5073900;28;20047;-79
2022/08/19 02:43:20;;;;;;;10.77;6.90;;;19.50;99.90;;;;;;5078890;28;20119;-79
2022/08/19 02:45:51;;;;;;;13.60;7.85;;;19.50;99.90;;;;;;5083293;28;20037;-79
2022/08/19 02:48:19;;;;;;;12.77;7.93;;;19.50;99.90;;;;;;5062683;28;20111;-79
2022/08/19 02:50:50;;;;;;;10.30;7.57;;;19.40;99.90;;;;;;5063293;28;20484;-79
2022/08/19 02:53:17;;;;;;;14.48;7.88;;;19.40;99.90;;;;;;5062202;28;20041;-79
2022/08/19 02:55:46;;;;;;;13.05;8.55;;;19.40;99.90;;;;;;5061834;28;20041;-79
2022/08/19 02:58:14;;;;;;;11.70;8.43;;;19.40;99.90;;;;;;5062964;28;20403;-79
2022/08/19 03:00:46;;;;;;;11.40;7.88;;;19.40;99.90;;;;;;5062833;28;20045;-79
2022/08/19 03:03:15;;;;;;;13.57;7.75;;;19.30;99.90;;;;;;5064008;28;20048;-79
2022/08/19 03:05:43;;;;;;;12.50;8.07;;;19.30;99.90;;;;;;5067156;28;20049;-79
2022/08/19 03:08:12;;;;;;;13.65;8.32;;;19.30;99.90;;;;;;5066476;28;20095;-79
2022/08/19 03:10:45;;;;;;;12.40;8.27;;;19.30;99.90;;;;;;5074608;28;20045;-79
2022/08/19 03:13:14;;;;;;;13.55;8.43;;;19.30;99.90;;;;;;5077175;28;20048;-76
2022/08/19 03:15:42;;;;;;;12.63;8.27;;;19.30;99.90;;;;;;5075772;28;20492;-76
2022/08/19 03:18:10;;;;;;;13.27;8.30;;;19.30;99.90;;;;;;5075463;28;20068;-76
2022/08/19 03:20:43;;;;;;;11.88;8.68;;;19.30;99.90;;;;;;5075586;28;20052;-76
2022/08/19 03:23:12;;;;;;;16.85;9.25;;;19.30;99.90;;;;;;5075195;28;20048;-76
2022/08/19 03:25:43;;;;;;;13.73;8.73;;;19.20;99.90;;;;;;5074867;28;20407;-76
2022/08/19 03:28:11;;;;;;;13.25;8.90;;;19.20;99.90;;;;;;5057446;28;20052;-76
2022/08/19 03:30:40;;;;;;;12.25;7.78;;;19.10;99.90;;;;;;5075620;28;20120;-76
2022/08/19 03:33:09;;;;;;;9.45;7.38;;;19.10;99.90;;;;;;5066833;28;20044;-76
2022/08/19 03:35:37;;;;;;;10.45;7.15;;;19.10;99.90;;;;;;5070485;28;20048;-76
2022/08/19 03:38:07;;;;;;;14.02;7.20;;;19.10;99.90;;;;;;5057170;28;20048;-77
2022/08/19 03:40:37;;;;;;;14.13;7.47;;;19.10;99.90;;;;;;5056426;28;20048;-76
2022/08/19 03:43:05;;;;;;;9.73;7.43;;;19.00;99.90;;;;;;5074550;28;20479;-76
2022/08/19 03:45:32;;;;;;;12.85;7.63;;;19.00;99.90;;;;;;5074807;28;20071;-75
2022/08/19 03:48:00;;;;;;;14.00;7.80;;;19.00;99.90;;;;;;5039035;28;20400;-77
2022/08/19 03:50:27;;;;;;;14.43;9.57;;;19.00;99.90;;;;;;5054651;28;20500;-76
2022/08/19 03:52:55;;;;;;;12.60;9.18;;;19.00;99.90;;;;;;5054553;28;20099;-76
2022/08/19 03:55:23;;;;;;;13.75;9.23;;;19.00;99.90;;;;;;5054900;28;20044;-75
2022/08/19 03:57:51;;;;;;;18.02;9.45;;;19.00;99.90;;;;;;5037116;28;20057;-76
2022/08/19 04:00:18;;;;;;;16.52;9.98;;;18.90;99.90;;;;;;5054951;28;20447;-76
2022/08/19 04:02:46;;;;;;;13.15;9.77;;;18.90;99.90;;;;;;5053993;28;20044;-76
2022/08/19 04:05:14;;;;;;;15.70;9.73;;;18.90;99.90;;;;;;5054873;28;20543;-76
2022/08/19 04:07:42;;;;;;;16.42;9.88;;;19.00;99.90;;;;;;5036346;28;20064;-76
2022/08/19 04:10:09;;;;;;;11.63;9.02;;;19.00;99.90;;;;;;5054110;28;20045;-77
2022/08/19 04:12:39;;;;;;;15.93;8.88;;;19.00;99.90;;;;;;5054154;28;20080;-76
2022/08/19 04:15:08;;;;;;;11.93;8.40;;;19.00;99.90;;;;;;5046240;28;20075;-77
2022/08/19 04:17:35;;;;;;;14.32;8.77;;;19.10;99.90;;;;;;5054242;28;20047;-76
2022/08/19 04:20:02;;;;;;;14.60;8.57;;;19.10;99.90;;;;;;5054296;28;20488;-76
2022/08/19 04:22:30;;;;;;;12.60;8.35;;;19.20;99.90;;;;;;5053966;28;20459;-76
2022/08/19 04:24:57;;;;;;;16.50;8.77;;;19.30;99.90;;;;;;5054183;28;20048;-76
2022/08/19 04:27:24;;;;;;;13.75;8.05;;;19.40;99.90;;;;;;5053932;28;20044;-76
2022/08/19 04:29:54;;;;;;;17.20;9.57;;;19.50;99.90;;;;;;5053792;28;20083;-76
2022/08/19 04:32:22;;;;;;;15.77;8.60;;;19.60;99.90;;;;;;5054245;28;20119;-76
2022/08/19 04:34:49;;;;;;;18.10;8.45;;;19.70;99.90;;;;;;5053762;28;20048;-77
2022/08/19 04:37:17;;;;;;;15.85;8.32;;;19.70;99.90;;;;;;5054086;28;20107;-76
2022/08/19 04:42:41;;;;;;;14.10;9.00;;;19.80;99.90;;;;;;5053775;28;20044;-75
2022/08/19 04:45:13;;;;;;;16.88;8.02;;;19.90;99.90;;;;;;5036067;28;20037;-75
2022/08/19 04:47:43;;;;;;;17.85;8.90;;;20.00;99.90;;;;;;5035019;28;20443;-76
2022/08/19 04:50:11;;;;;;;10.85;8.27;;;20.10;99.90;;;;;;5035942;28;20072;-76
2022/08/19 04:52:42;;;;;;;12.80;8.23;;;20.30;99.90;;;;;;5053227;28;20044;-76
2022/08/19 04:55:11;;;;;;;12.13;7.95;;;20.50;99.90;;;;;;5035774;28;20064;-77
2022/08/19 04:57:40;;;;;;;15.45;8.98;;;20.70;99.90;;;;;;5053288;28;20099;-76
2022/08/19 05:00:11;;;;;;;13.98;8.05;;;20.90;99.90;;;;;;5036006;28;20048;-76
2022/08/19 05:02:39;;;;;;;13.32;7.60;;;21.20;99.90;;;;;;5053708;28;20064;-76
2022/08/19 05:05:07;;;;;;;14.18;7.75;;;21.30;99.90;;;;;;5054032;28;20120;-76
2022/08/19 05:07:34;;;;;;;19.23;8.75;;;21.40;99.90;;;;;;5062969;28;20041;-76
2022/08/19 05:10:01;;;;;;;17.73;8.00;;;21.60;99.90;;;;;;5038587;28;20045;-76
2022/08/19 05:12:29;;;;;;;14.65;7.53;;;21.70;99.90;;;;;;5053321;28;20373;-75
2022/08/19 05:14:58;;;;;;;15.43;8.45;;;22.00;99.90;;;;;;5053237;28;20369;-77
2022/08/19 05:17:27;;;;;;;22.83;11.23;;;22.10;99.90;;;;;;5035405;28;20056;-76
2022/08/19 05:22:41;;;;;;;17.88;12.18;;;22.50;99.90;;;;;;5053732;28;20425;-77
2022/08/19 05:25:11;;;;;;;13.20;9.18;;;22.60;99.90;;;;;;5054017;28;20065;-76
2022/08/19 05:27:39;;;;;;;17.40;8.77;;;22.90;99.90;;;;;;5053871;28;20061;-76
2022/08/19 05:30:08;;;;;;;21.15;11.10;;;23.20;1.00;;;;;;5045394;28;20563;-76
2022/08/19 05:32:36;;;;;;;15.02;8.23;;;23.40;1.00;;;;;;5035781;28;20045;-76
2022/08/19 05:35:05;;;;;;;16.30;9.32;;;23.60;92.80;;;;;;5070876;28;20116;-76
2022/08/19 05:37:32;;;;;;;16.23;8.70;;;23.80;1.00;;;;;;5067568;28;20036;-76
2022/08/19 05:39:59;;;;;;;25.17;9.30;;;24.10;99.90;;;;;;5060898;28;20106;-76
2022/08/19 05:42:27;;;;;;;15.10;8.70;;;24.40;99.90;;;;;;5052962;28;20049;-76
2022/08/19 05:44:55;;;;;;;22.80;13.30;;;24.70;1.00;;;;;;5056653;28;20072;-75
2022/08/19 05:47:22;;;;;;;19.55;13.25;;;24.30;1.00;;;;;;5047274;28;20135;-76
2022/08/19 05:49:51;;;;;;;26.80;14.43;;;24.10;99.90;;;;;;5071954;28;20051;-76
2022/08/19 05:52:20;;;;;;;19.75;12.77;;;24.00;1.00;;;;;;5072922;28;20125;-76
2022/08/19 05:54:50;;;;;;;16.88;11.27;;;24.00;99.90;;;;;;5073116;28;20466;-76
2022/08/19 05:57:18;;;;;;;22.63;13.40;;;24.00;1.00;;;;;;5072223;28;20215;-76
2022/08/19 05:59:51;;;;;;;21.00;11.43;;;23.90;1.00;;;;;;5067500;28;20033;-76
2022/08/19 06:02:18;;;;;;;26.15;14.20;;;23.70;1.00;;;;;;5076552;28;20399;-76
2022/08/19 06:04:45;;;;;;;22.13;11.85;;;23.70;99.90;;;;;;5073733;28;20437;-77
2022/08/19 06:07:15;;;;;;;23.83;12.98;;;23.80;99.90;;;;;;5077117;28;20440;-76
2022/08/19 06:09:42;;;;;;;14.35;8.70;;;24.00;99.90;;;;;;5077837;28;20098;-77
2022/08/19 06:12:10;;;;;;;15.48;8.90;;;24.30;1.00;;;;;;5077302;28;20040;-76
2022/08/19 06:14:38;;;;;;;16.98;8.35;;;24.70;1.00;;;;;;5077109;28;20040;-76
2022/08/19 06:17:05;;;;;;;15.00;7.05;;;25.10;1.00;;;;;;5058504;28;20051;-76
2022/08/19 06:19:33;;;;;;;12.80;7.72;;;25.40;99.90;;;;;;5076544;28;20052;-76
2022/08/19 06:22:01;;;;;;;12.65;7.90;;;25.20;23.60;;;;;;5075743;28;20045;-75
2022/08/19 06:24:31;;;;;;;16.85;7.45;;;25.40;99.90;;;;;;5076001;28;20101;-77
2022/08/19 06:27:00;;;;;;;12.75;7.00;;;25.60;1.00;;;;;;5076159;28;20395;-77
2022/08/19 06:29:29;;;;;;;18.88;11.05;;;25.60;1.00;;;;;;5076583;28;20050;-75
2022/08/19 06:31:59;;;;;;;16.92;9.32;;;25.90;1.00;;;;;;5076379;28;20041;-76
2022/08/19 06:34:28;;;;;;;17.85;8.00;;;26.30;99.90;;;;;;5070774;28;20066;-75
2022/08/19 06:37:00;;;;;;;19.73;10.80;;;26.50;99.90;;;;;;5078039;28;20052;-76
2022/08/19 06:39:32;;;;;;;19.73;8.15;;;26.80;1.00;;;;;;5078943;28;20055;-75
2022/08/19 06:42:01;;;;;;;15.57;7.68;;;27.10;25.60;;;;;;5077169;28;20075;-75
2022/08/19 06:44:34;;;;;;;12.27;7.70;;;27.40;99.90;;;;;;5076950;28;20079;-75
2022/08/19 06:47:03;;;;;;;16.23;7.05;;;27.60;1.00;;;;;;5077231;28;20127;-76
2022/08/19 06:49:30;;;;;;;19.58;8.00;;;27.70;99.90;;;;;;5076068;28;20040;-75
2022/08/19 06:51:58;;;;;;;16.40;8.50;;;27.90;99.90;;;;;;5078131;28;20040;-76
2022/08/19 06:54:26;;;;;;;15.05;7.78;;;28.30;1.00;;;;;;5076361;28;20033;-76
2022/08/19 06:56:55;;;;;;;17.80;9.07;;;28.50;1.00;;;;;;5074348;28;20126;-74
2022/08/19 06:59:26;;;;;;;20.63;11.48;;;28.60;99.90;;;;;;5075289;28;20545;-75
2022/08/19 07:01:57;;;;;;;23.92;10.07;;;28.70;99.90;;;;;;5075438;28;20048;-76
2022/08/19 07:04:26;;;;;;;15.95;9.15;;;28.70;99.90;;;;;;5069288;28;20049;-76
2022/08/19 07:06:59;;;;;;;19.20;10.38;;;29.00;99.90;;;;;;5073674;28;20040;-76
2022/08/19 07:09:27;;;;;;;23.98;9.82;;;29.20;99.90;;;;;;5075831;28;20491;-75
2022/08/19 07:11:56;;;;;;;27.70;11.95;;;29.50;99.90;;;;;;5056508;28;20036;-77
2022/08/19 07:14:26;;;;;;;26.13;12.60;;;29.50;99.90;;;;;;5072648;28;20049;-77
2022/08/19 07:16:56;;;;;;;24.50;13.05;;;29.60;99.90;;;;;;5078321;28;20044;-76
2022/08/19 07:19:25;;;;;;;23.45;11.95;;;29.70;99.90;;;;;;5078532;28;20044;-75
2022/08/19 07:21:53;;;;;;;29.15;17.23;;;30.00;99.90;;;;;;5076098;28;20376;-75
2022/08/19 07:24:23;;;;;;;27.58;11.73;;;30.20;99.90;;;;;;5071974;28;20495;-76
2022/08/19 07:26:51;;;;;;;21.02;10.82;;;30.40;99.90;;;;;;5075793;28;20048;-77
2022/08/19 07:29:22;;;;;;;21.38;12.27;;;30.60;99.90;;;;;;5074640;28;20056;-75
2022/08/19 07:31:50;;;;;;;18.67;13.27;;;30.70;99.90;;;;;;5075326;28;20045;-76
2022/08/19 07:34:18;;;;;;;26.88;12.75;;;30.80;99.90;;;;;;5070603;28;20115;-76
2022/08/19 07:36:46;;;;;;;23.52;12.07;;;30.90;99.90;;;;;;5057442;28;20496;-76
2022/08/19 07:39:16;;;;;;;16.75;9.07;;;31.10;99.90;;;;;;5075169;28;20074;-76
2022/08/19 07:41:44;;;;;;;23.77;13.32;;;31.20;99.90;;;;;;5057219;28;20060;-77
2022/08/19 07:44:12;;;;;;;25.63;15.82;;;31.30;99.90;;;;;;5074735;28;20496;-77
2022/08/19 07:46:45;;;;;;;25.80;16.38;;;31.40;99.90;;;;;;5074921;28;20044;-77
2022/08/19 07:49:17;;;;;;;25.55;14.52;;;31.50;99.90;;;;;;5074636;28;20056;-76
2022/08/19 07:51:45;;;;;;;27.95;19.20;;;31.70;99.90;;;;;;5074359;28;20442;-77
2022/08/19 07:54:13;;;;;;;30.27;18.90;;;31.80;99.00;;;;;;5074289;28;20101;-76
2022/08/19 07:56:40;;;;;;;26.20;17.77;;;31.90;98.30;;;;;;5074402;28;20048;-77
2022/08/19 07:59:08;;;;;;;22.15;13.52;;;32.00;96.80;;;;;;5074781;28;20040;-76
2022/08/19 08:01:37;;;;;;;27.45;16.17;;;32.30;95.30;;;;;;5074669;28;20040;-77
2022/08/19 08:09:38;;;;;;;22.85;13.80;;;32.40;92.80;;;;;;5035264;28;20544;-77
2022/08/19 08:12:07;;;;;;;18.15;11.23;;;32.50;92.40;;;;;;5037076;28;20091;-78
2022/08/19 08:14:37;;;;;;;27.50;15.27;;;32.70;92.30;;;;;;5036419;28;20061;-77
2022/08/19 08:17:06;;;;;;;25.33;14.75;;;32.70;92.40;;;;;;5045409;28;20084;-79
2022/08/19 08:19:34;;;;;;;30.95;16.50;;;32.80;92.30;;;;;;5043303;28;20103;-78
2022/08/19 08:22:05;;;;;;;28.95;16.52;;;33.00;92.10;;;;;;5040570;28;20061;-78
2022/08/19 08:24:33;;;;;;;24.05;13.68;;;33.10;91.90;;;;;;5037571;28;20049;-78
2022/08/19 08:27:02;;;;;;;28.20;14.93;;;33.20;91.80;;;;;;5040468;28;20038;-78
2022/08/19 08:29:31;;;;;;;22.23;13.50;;;33.20;91.50;;;;;;5051016;28;20431;-79
2022/08/19 08:31:58;;;;;;;27.38;12.18;;;33.40;91.30;;;;;;5057956;28;20041;-79
2022/08/19 08:34:25;;;;;;;21.10;12.85;;;33.50;90.80;;;;;;5071250;28;20048;-79
2022/08/19 08:36:54;;;;;;;25.15;15.77;;;33.50;90.00;;;;;;5073124;28;20086;-79
2022/08/19 08:39:22;;;;;;;25.45;12.45;;;33.50;90.00;;;;;;5053806;28;20102;-79
2022/08/19 08:41:56;;;;;;;26.25;17.83;;;33.30;90.00;;;;;;5074590;28;20097;-78
2022/08/19 08:44:30;;;;;;;22.88;10.23;;;33.30;90.20;;;;;;5075968;28;20524;-78
2022/08/19 08:47:01;;;;;;;20.38;9.80;;;33.30;90.50;;;;;;5066929;28;20480;-78
2022/08/19 08:49:34;;;;;;;22.38;11.45;;;32.80;91.10;;;;;;5041733;28;20037;-78
2022/08/19 08:52:08;;;;;;;23.98;9.75;;;32.70;91.50;;;;;;5056367;28;20083;-79
2022/08/19 08:54:40;;;;;;;22.60;10.23;;;32.60;91.40;;;;;;5057779;28;20095;-79
2022/08/19 08:57:13;;;;;;;27.20;9.88;;;32.50;91.50;;;;;;5060473;28;20084;-76
2022/08/19 08:59:44;;;;;;;27.58;11.23;;;32.40;91.40;;;;;;5059689;28;20040;-77
2022/08/19 09:02:11;;;;;;;21.70;10.93;;;32.50;91.60;;;;;;5066794;28;20048;-77
2022/08/19 09:04:39;;;;;;;25.42;12.43;;;32.70;91.30;;;;;;5073799;28;20055;-78
2022/08/19 09:07:27;;;;;;;28.80;12.75;;;32.80;90.70;;;;;;5065627;28;20480;-77
2022/08/19 09:10:03;;;;;;;26.90;11.40;;;32.90;91.00;;;;;;5074162;28;20032;-77
2022/08/19 09:12:43;;;;;;;20.75;9.27;;;33.10;88.60;;;;;;5073509;28;20446;-77
2022/08/19 09:15:13;;;;;;;24.75;11.45;;;33.20;85.90;;;;;;5073804;28;20510;-78
2022/08/19 09:17:41;;;;;;;30.10;14.05;;;33.40;85.80;;;;;;5072534;28;20545;-77
2022/08/19 09:20:16;;;;;;;33.15;12.63;;;33.30;85.80;;;;;;5073793;28;20090;-77
2022/08/19 09:22:46;;;;;;;23.00;10.18;;;33.50;85.10;;;;;;5044442;28;20271;-78
2022/08/19 09:25:16;;;;;;;23.38;12.27;;;33.50;82.70;;;;;;5058691;28;20036;-78
2022/08/19 09:27:48;;;;;;;24.38;8.75;;;33.80;80.60;;;;;;5074471;28;20045;-78
2022/08/19 09:30:21;;;;;;;22.70;9.27;;;34.00;77.40;;;;;;5068563;28;20072;-79
2022/08/19 09:32:49;;;;;;;22.65;10.75;;;34.10;77.00;;;;;;5074508;28;20482;-78
2022/08/19 09:35:16;;;;;;;23.52;9.10;;;34.10;76.50;;;;;;5074001;28;20041;-77
2022/08/19 09:37:46;;;;;;;26.73;11.80;;;34.00;76.50;;;;;;5074362;28;20049;-77
2022/08/19 09:40:14;;;;;;;20.02;9.52;;;34.10;76.70;;;;;;5073873;28;20053;-77
2022/08/19 09:42:43;;;;;;;22.60;10.93;;;34.50;76.50;;;;;;5068069;28;20123;-78
2022/08/19 09:45:11;;;;;;;27.58;13.02;;;34.80;76.00;;;;;;5075182;28;20056;-79
2022/08/19 09:47:38;;;;;;;26.55;11.00;;;35.30;75.30;;;;;;5075986;28;20123;-78
2022/08/19 09:50:07;;;;;;;27.30;12.75;;;35.70;74.60;;;;;;5075852;28;20517;-77
2022/08/19 09:52:36;;;;;;;18.17;9.63;;;35.80;74.40;;;;;;5072351;28;20048;-77
2022/08/19 09:55:06;;;;;;;24.65;10.55;;;36.00;74.40;;;;;;5075916;28;20101;-76
2022/08/19 09:57:34;;;;;;;28.60;12.27;;;35.90;74.50;;;;;;5076805;28;20113;-77
2022/08/19 10:00:01;;;;;;;39.83;22.67;;;35.70;74.80;;;;;;5073321;28;20041;-77
2022/08/19 10:02:36;;;;;;;23.98;11.82;;;35.60;75.80;;;;;;5073144;28;20053;-77
2022/08/19 10:07:50;;;;;;;20.58;11.98;;;35.10;79.80;;;;;;5082996;28;20044;-77
2022/08/19 10:10:19;;;;;;;25.25;13.32;;;34.90;82.30;;;;;;5092674;28;20560;-78
2022/08/19 10:12:47;;;;;;;34.17;15.13;;;34.70;85.40;;;;;;5079014;28;20041;-77
2022/08/19 10:15:15;;;;;;;29.20;14.75;;;34.50;87.00;;;;;;5071380;28;20048;-77
2022/08/19 10:17:42;;;;;;;30.27;13.13;;;34.10;86.90;;;;;;5066188;28;20124;-77
2022/08/19 10:20:10;;;;;;;27.92;13.35;;;33.90;84.70;;;;;;5048882;28;20461;-76
2022/08/19 10:22:38;;;;;;;28.15;11.75;;;33.90;81.80;;;;;;5070390;28;20040;-78
2022/08/19 10:25:07;;;;;;;26.23;13.02;;;33.90;79.70;;;;;;5067811;28;20044;-78
2022/08/19 10:27:37;;;;;;;50.50;32.10;;;33.90;79.80;;;;;;5073496;28;20051;-78
2022/08/19 10:30:06;;;;;;;30.92;14.98;;;34.00;79.30;;;;;;5065403;28;20090;-77
2022/08/19 10:32:33;;;;;;;29.95;12.23;;;34.30;79.20;;;;;;5066920;28;20044;-76
2022/08/19 10:35:01;;;;;;;30.05;13.80;;;34.30;82.30;;;;;;5054831;28;20051;-76
2022/08/19 10:37:30;;;;;;;28.77;14.90;;;34.50;82.50;;;;;;5054164;28;20132;-77
2022/08/19 10:39:57;;;;;;;35.25;14.30;;;34.50;83.10;;;;;;5070062;28;20102;-77
2022/08/19 10:42:25;;;;;;;27.02;12.52;;;34.80;83.50;;;;;;5053446;28;20045;-78
2022/08/19 10:44:54;;;;;;;23.45;11.70;;;34.80;84.30;;;;;;5039258;28;20045;-77
2022/08/19 10:47:21;;;;;;;29.15;12.98;;;34.40;84.60;;;;;;5066385;28;20041;-78
2022/08/19 10:52:35;;;;;;;27.90;14.18;;;34.30;86.30;;;;;;5071563;28;20090;-78
2022/08/19 10:57:47;;;;;;;33.30;13.80;;;34.50;85.20;;;;;;5073641;28;20141;-77
2022/08/19 11:00:17;;;;;;;29.15;10.82;;;34.50;82.70;;;;;;5082567;28;20032;-77
2022/08/19 11:02:44;;;;;;;31.90;9.48;;;34.40;81.00;;;;;;5097736;28;20048;-77
2022/08/19 11:05:11;;;;;;;33.03;10.20;;;34.20;81.80;;;;;;5061666;28;20059;-76
2022/08/19 11:07:39;;;;;;;28.10;9.77;;;34.20;81.10;;;;;;5060053;28;20037;-78
2022/08/19 11:10:09;;;;;;;38.58;15.68;;;34.50;79.80;;;;;;5079885;28;20098;-78
2022/08/19 11:12:39;;;;;;;32.90;15.20;;;34.60;78.50;;;;;;5060182;28;20052;-77
2022/08/19 11:15:10;;;;;;;28.15;9.32;;;34.50;77.80;;;;;;5062825;28;20513;-77
2022/08/19 11:17:42;;;;;;;23.02;9.30;;;34.30;78.10;;;;;;5075264;28;20025;-76
2022/08/19 11:20:11;;;;;;;24.60;9.20;;;34.30;79.00;;;;;;5077202;28;20521;-76
2022/08/19 11:22:39;;;;;;;31.27;10.73;;;34.00;80.40;;;;;;5057622;28;20040;-76
2022/08/19 11:25:08;;;;;;;27.50;9.50;;;33.90;81.20;;;;;;5059176;28;20043;-78
2022/08/19 11:27:41;;;;;;;24.08;12.55;;;34.10;81.40;;;;;;5075924;28;20044;-78
2022/08/19 11:30:10;;;;;;;29.83;11.45;;;34.20;81.80;;;;;;5074785;28;20502;-77
2022/08/19 11:32:39;;;;;;;26.77;10.95;;;33.90;82.50;;;;;;5069193;28;20040;-77
2022/08/19 11:35:08;;;;;;;24.23;12.10;;;33.80;82.50;;;;;;5073822;28;20040;-77
2022/08/19 11:37:37;;;;;;;29.98;9.95;;;33.50;82.30;;;;;;5097037;28;20039;-76
2022/08/19 11:40:07;;;;;;;24.38;10.13;;;33.60;81.70;;;;;;5082403;28;20036;-77
2022/08/19 11:45:19;;;;;;;26.33;10.13;;;33.90;79.40;;;;;;5075110;28;20040;-77
2022/08/19 11:47:48;;;;;;;30.80;12.55;;;34.10;79.70;;;;;;5077114;28;20286;-77
2022/08/19 11:50:16;;;;;;;32.85;11.68;;;34.30;81.00;;;;;;5059659;28;20103;-76
2022/08/19 11:52:43;;;;;;;27.08;11.23;;;34.20;82.80;;;;;;5078790;28;20064;-77
2022/08/19 11:55:11;;;;;;;27.60;10.82;;;34.10;82.70;;;;;;5067913;28;20044;-72
2022/08/19 11:57:40;;;;;;;31.10;14.25;;;33.90;82.70;;;;;;5054573;28;20049;-73
2022/08/19 12:00:10;;;;;;;27.70;10.23;;;33.80;82.30;;;;;;5037420;28;20045;-71
2022/08/19 12:02:37;;;;;;;24.20;8.18;;;33.70;81.60;;;;;;5063712;28;20041;-72
2022/08/19 12:05:07;;;;;;;26.75;8.07;;;33.60;81.00;;;;;;5037940;28;20049;-73
2022/08/19 12:07:34;;;;;;;24.20;9.10;;;33.50;80.80;;;;;;5073620;28;20041;-73
2022/08/19 12:10:03;;;;;;;22.73;8.45;;;33.60;80.50;;;;;;5065263;28;20049;-73
2022/08/19 12:12:30;;;;;;;26.63;9.32;;;33.70;79.30;;;;;;5058498;28;20044;-72
2022/08/19 12:14:58;;;;;;;27.33;9.27;;;33.90;78.70;;;;;;5069549;28;20051;-73
2022/08/19 12:17:26;;;;;;;19.55;8.93;;;34.10;77.60;;;;;;5067437;28;20048;-72
2022/08/19 12:19:53;;;;;;;24.60;9.05;;;34.20;78.00;;;;;;5070064;28;20045;-72
2022/08/19 12:22:22;;;;;;;21.83;9.48;;;34.20;78.00;;;;;;5079179;28;20548;-72
2022/08/19 12:24:52;;;;;;;27.15;9.30;;;34.30;77.60;;;;;;5065683;28;20053;-73
2022/08/19 12:27:19;;;;;;;23.75;9.60;;;34.40;77.80;;;;;;5074300;28;20041;-72
2022/08/19 12:29:46;;;;;;;31.98;16.50;;;34.40;77.70;;;;;;5074207;28;20048;-73
2022/08/19 12:32:14;;;;;;;25.88;11.23;;;34.60;77.60;;;;;;5061266;28;20044;-73
2022/08/19 12:34:42;;;;;;;27.25;9.85;;;34.70;77.40;;;;;;5053784;28;20057;-72
2022/08/19 12:37:10;;;;;;;21.60;7.00;;;34.80;77.70;;;;;;5053122;28;20385;-74
2022/08/19 12:39:42;;;;;;;26.95;8.45;;;34.70;77.50;;;;;;5073881;28;20079;-72
2022/08/19 12:42:11;;;;;;;21.17;8.25;;;34.60;77.80;;;;;;5056486;28;20055;-72
2022/08/19 12:44:40;;;;;;;25.63;10.02;;;34.40;78.50;;;;;;5073442;28;20067;-72
2022/08/19 12:47:08;;;;;;;24.92;10.63;;;34.10;79.00;;;;;;5063891;28;20037;-71
2022/08/19 12:49:38;;;;;;;22.10;7.88;;;33.90;79.30;;;;;;5074449;28;20054;-70
2022/08/19 12:52:07;;;;;;;22.25;7.45;;;33.70;79.00;;;;;;5073694;28;20549;-72
2022/08/19 12:54:35;;;;;;;22.50;8.85;;;33.50;79.30;;;;;;5066477;28;20094;-70
2022/08/19 12:57:07;;;;;;;21.05;10.30;;;33.50;79.20;;;;;;5035342;28;20135;-71
2022/08/19 12:59:36;;;;;;;21.50;9.70;;;33.50;78.40;;;;;;5055680;28;20044;-70
2022/08/19 13:02:05;;;;;;;26.20;10.38;;;33.50;78.10;;;;;;5054312;28;20057;-71
2022/08/19 13:04:34;;;;;;;26.70;10.07;;;33.30;78.00;;;;;;5052527;28;20135;-71
2022/08/19 13:07:02;;;;;;;25.15;8.95;;;33.20;78.20;;;;;;5035897;28;20443;-70